sensor_id;sensor_type;location;lat;lon;timestamp;pressure;altitude;pressure_sealevel;temperature;humidity
13041;BME280;6587;42.728;23.288;2024-03-23T00:52:00;95429.13;;;2.90;67.90
13041;BME280;6587;42.728;23.288;2024-03-23T00:54:26;95423.69;;;2.83;68.24
13041;BME280;6587;42.728;23.288;2024-03-23T00:56:51;95430.00;;;3.06;67.68
13041;BME280;6587;42.728;23.288;2024-03-23T00:59:17;95416.41;;;3.16;66.99
13041;BME280;6587;42.728;23.288;2024-03-23T01:01:42;95424.19;;;3.01;67.22
13041;BME280;6587;42.728;23.288;2024-03-23T01:04:08;95421.03;;;2.71;68.54
13041;BME280;6587;42.728;23.288;2024-03-23T01:06:34;95420.72;;;2.85;68.56
13041;BME280;6587;42.728;23.288;2024-03-23T01:08:59;95418.94;;;2.65;68.71
13041;BME280;6587;42.728;23.288;2024-03-23T01:11:25;95419.25;;;2.63;68.77
13041;BME280;6587;42.728;23.288;2024-03-23T01:13:50;95412.47;;;2.62;69.21
13041;BME280;6587;42.728;23.288;2024-03-23T01:16:16;95409.41;;;2.36;69.63
13041;BME280;6587;42.728;23.288;2024-03-23T01:18:42;95413.75;;;1.88;71.51
13041;BME280;6587;42.728;23.288;2024-03-23T01:21:07;95412.88;;;2.28;71.29
13041;BME280;6587;42.728;23.288;2024-03-23T01:23:33;95418.50;;;2.63;69.83
13041;BME280;6587;42.728;23.288;2024-03-23T01:25:59;95418.06;;;2.49;69.56
13041;BME280;6587;42.728;23.288;2024-03-23T01:28:24;95424.72;;;2.46;69.99
13041;BME280;6587;42.728;23.288;2024-03-23T01:30:50;95419.34;;;2.31;70.12
13041;BME280;6587;42.728;23.288;2024-03-23T01:33:16;95417.47;;;2.31;70.05
13041;BME280;6587;42.728;23.288;2024-03-23T01:35:42;95425.34;;;2.19;70.71
13041;BME280;6587;42.728;23.288;2024-03-23T01:38:08;95420.31;;;2.26;70.82
13041;BME280;6587;42.728;23.288;2024-03-23T01:40:33;95424.31;;;2.44;70.20
13041;BME280;6587;42.728;23.288;2024-03-23T01:43:04;95414.94;;;2.23;70.20
13041;BME280;6587;42.728;23.288;2024-03-23T01:45:30;95417.16;;;2.45;70.12
13041;BME280;6587;42.728;23.288;2024-03-23T01:47:58;95414.00;;;2.63;69.37
13041;BME280;6587;42.728;23.288;2024-03-23T01:50:24;95415.84;;;2.51;69.16
13041;BME280;6587;42.728;23.288;2024-03-23T01:52:50;95415.41;;;2.37;69.89
13041;BME280;6587;42.728;23.288;2024-03-23T01:55:16;95413.66;;;2.41;69.82
13041;BME280;6587;42.728;23.288;2024-03-23T01:57:42;95417.50;;;2.43;69.56
13041;BME280;6587;42.728;23.288;2024-03-23T02:00:08;95415.25;;;2.09;70.27
13041;BME280;6587;42.728;23.288;2024-03-23T02:02:46;95413.97;;;2.27;70.07
13041;BME280;6587;42.728;23.288;2024-03-23T02:05:13;95414.72;;;2.16;70.43
13041;BME280;6587;42.728;23.288;2024-03-23T02:07:40;95408.84;;;1.98;71.09
13041;BME280;6587;42.728;23.288;2024-03-23T02:10:09;95416.59;;;1.95;71.28
13041;BME280;6587;42.728;23.288;2024-03-23T02:12:37;95406.88;;;1.63;72.67
13041;BME280;6587;42.728;23.288;2024-03-23T02:15:03;95416.22;;;1.72;73.37
13041;BME280;6587;42.728;23.288;2024-03-23T02:17:30;95419.91;;;2.04;72.84
13041;BME280;6587;42.728;23.288;2024-03-23T02:19:56;95421.38;;;2.13;72.31
13041;BME280;6587;42.728;23.288;2024-03-23T02:22:21;95421.69;;;2.12;71.95
13041;BME280;6587;42.728;23.288;2024-03-23T02:24:47;95422.50;;;2.24;71.68
13041;BME280;6587;42.728;23.288;2024-03-23T02:27:13;95423.19;;;2.45;71.16
13041;BME280;6587;42.728;23.288;2024-03-23T02:29:38;95418.41;;;2.59;70.25
13041;BME280;6587;42.728;23.288;2024-03-23T02:32:04;95429.03;;;2.18;70.73
13041;BME280;6587;42.728;23.288;2024-03-23T02:34:30;95429.66;;;2.03;71.75
13041;BME280;6587;42.728;23.288;2024-03-23T02:36:56;95429.00;;;2.06;71.95
13041;BME280;6587;42.728;23.288;2024-03-23T02:39:21;95414.31;;;1.93;72.17
13041;BME280;6587;42.728;23.288;2024-03-23T02:41:47;95421.69;;;1.79;72.93
13041;BME280;6587;42.728;23.288;2024-03-23T02:44:13;95420.28;;;2.14;72.18
13041;BME280;6587;42.728;23.288;2024-03-23T02:46:39;95420.72;;;1.84;72.43
13041;BME280;6587;42.728;23.288;2024-03-23T02:49:05;95421.38;;;1.60;73.54
13041;BME280;6587;42.728;23.288;2024-03-23T02:51:31;95424.25;;;1.88;72.71
13041;BME280;6587;42.728;23.288;2024-03-23T02:53:56;95419.00;;;1.88;72.72
13041;BME280;6587;42.728;23.288;2024-03-23T02:56:22;95412.50;;;1.73;73.22
13041;BME280;6587;42.728;23.288;2024-03-23T02:58:48;95412.97;;;1.87;73.13
13041;BME280;6587;42.728;23.288;2024-03-23T03:01:14;95417.84;;;1.97;73.32
13041;BME280;6587;42.728;23.288;2024-03-23T03:03:39;95405.69;;;1.93;72.78
13041;BME280;6587;42.728;23.288;2024-03-23T03:06:05;95407.31;;;1.64;73.42
13041;BME280;6587;42.728;23.288;2024-03-23T03:08:31;95413.34;;;1.98;72.92
13041;BME280;6587;42.728;23.288;2024-03-23T03:10:56;95411.56;;;1.90;72.40
13041;BME280;6587;42.728;23.288;2024-03-23T03:13:22;95409.88;;;1.52;74.07
13041;BME280;6587;42.728;23.288;2024-03-23T03:15:47;95409.72;;;2.02;72.71
13041;BME280;6587;42.728;23.288;2024-03-23T03:18:13;95421.78;;;2.03;72.11
13041;BME280;6587;42.728;23.288;2024-03-23T03:20:39;95408.19;;;1.89;72.28
13041;BME280;6587;42.728;23.288;2024-03-23T03:23:06;95422.91;;;1.82;72.83
13041;BME280;6587;42.728;23.288;2024-03-23T03:25:32;95418.25;;;1.99;71.53
13041;BME280;6587;42.728;23.288;2024-03-23T03:27:57;95415.88;;;1.74;71.89
13041;BME280;6587;42.728;23.288;2024-03-23T03:30:23;95415.94;;;1.65;72.92
13041;BME280;6587;42.728;23.288;2024-03-23T03:32:49;95407.53;;;1.92;72.19
13041;BME280;6587;42.728;23.288;2024-03-23T03:35:15;95410.97;;;1.72;72.15
13041;BME280;6587;42.728;23.288;2024-03-23T03:37:41;95417.28;;;1.50;73.11
13041;BME280;6587;42.728;23.288;2024-03-23T03:40:07;95420.03;;;1.75;72.68
13041;BME280;6587;42.728;23.288;2024-03-23T03:42:34;95415.78;;;1.49;72.88
13041;BME280;6587;42.728;23.288;2024-03-23T03:45:00;95421.25;;;1.15;74.19
13041;BME280;6587;42.728;23.288;2024-03-23T03:47:26;95419.03;;;1.26;74.84
13041;BME280;6587;42.728;23.288;2024-03-23T03:49:52;95414.28;;;1.40;74.49
13041;BME280;6587;42.728;23.288;2024-03-23T03:52:17;95421.31;;;1.27;74.78
13041;BME280;6587;42.728;23.288;2024-03-23T03:54:43;95416.28;;;1.63;73.69
13041;BME280;6587;42.728;23.288;2024-03-23T03:57:08;95420.22;;;1.90;72.70
13041;BME280;6587;42.728;23.288;2024-03-23T03:59:34;95409.22;;;1.35;73.29
13041;BME280;6587;42.728;23.288;2024-03-23T04:02:00;95421.69;;;1.38;74.42
13041;BME280;6587;42.728;23.288;2024-03-23T04:04:25;95421.69;;;1.38;74.26
13041;BME280;6587;42.728;23.288;2024-03-23T04:06:59;95430.16;;;1.23;74.57
13041;BME280;6587;42.728;23.288;2024-03-23T04:09:25;95427.47;;;1.11;75.17
13041;BME280;6587;42.728;23.288;2024-03-23T04:11:50;95425.06;;;1.47;74.42
13041;BME280;6587;42.728;23.288;2024-03-23T04:14:16;95424.72;;;1.69;73.36
13041;BME280;6587;42.728;23.288;2024-03-23T04:16:41;95428.03;;;1.37;73.35
13041;BME280;6587;42.728;23.288;2024-03-23T04:19:07;95434.25;;;1.53;72.80
13041;BME280;6587;42.728;23.288;2024-03-23T04:21:33;95422.72;;;1.66;72.34
13041;BME280;6587;42.728;23.288;2024-03-23T04:23:58;95430.34;;;1.38;72.52
13041;BME280;6587;42.728;23.288;2024-03-23T04:26:24;95431.56;;;1.41;72.90
13041;BME280;6587;42.728;23.288;2024-03-23T04:28:49;95431.38;;;1.67;72.27
13041;BME280;6587;42.728;23.288;2024-03-23T04:31:15;95431.44;;;1.37;72.26
13041;BME280;6587;42.728;23.288;2024-03-23T04:33:41;95433.34;;;1.08;73.02
13041;BME280;6587;42.728;23.288;2024-03-23T04:36:06;95430.53;;;1.33;72.84
13041;BME280;6587;42.728;23.288;2024-03-23T04:38:32;95429.78;;;1.33;72.18
13041;BME280;6587;42.728;23.288;2024-03-23T04:40:59;95431.59;;;1.12;72.50
13041;BME280;6587;42.728;23.288;2024-03-23T04:43:25;95444.16;;;1.27;72.52
13041;BME280;6587;42.728;23.288;2024-03-23T04:45:52;95433.56;;;1.44;71.98
13041;BME280;6587;42.728;23.288;2024-03-23T04:48:22;95437.06;;;1.27;71.64
13041;BME280;6587;42.728;23.288;2024-03-23T04:50:54;95448.31;;;1.28;71.93
13041;BME280;6587;42.728;23.288;2024-03-23T04:53:20;95444.16;;;1.27;71.89
13041;BME280;6587;42.728;23.288;2024-03-23T04:55:45;95445.22;;;1.05;71.96
13041;BME280;6587;42.728;23.288;2024-03-23T04:58:11;95443.28;;;0.94;72.54
13041;BME280;6587;42.728;23.288;2024-03-23T05:00:36;95447.41;;;1.24;72.11
13041;BME280;6587;42.728;23.288;2024-03-23T05:03:02;95446.69;;;1.44;71.51
13041;BME280;6587;42.728;23.288;2024-03-23T05:05:28;95448.81;;;1.21;71.63
13041;BME280;6587;42.728;23.288;2024-03-23T05:07:54;95449.66;;;1.34;71.87
13041;BME280;6587;42.728;23.288;2024-03-23T05:10:19;95447.28;;;1.41;71.45
13041;BME280;6587;42.728;23.288;2024-03-23T05:12:45;95443.97;;;1.32;71.28
13041;BME280;6587;42.728;23.288;2024-03-23T05:15:11;95447.19;;;1.37;71.51
13041;BME280;6587;42.728;23.288;2024-03-23T05:17:37;95437.13;;;1.60;71.22
13041;BME280;6587;42.728;23.288;2024-03-23T05:20:04;95437.13;;;1.60;70.87
13041;BME280;6587;42.728;23.288;2024-03-23T05:22:30;95440.16;;;1.71;70.77
13041;BME280;6587;42.728;23.288;2024-03-23T05:24:56;95439.59;;;1.98;69.98
13041;BME280;6587;42.728;23.288;2024-03-23T05:27:21;95443.66;;;2.07;69.76
13041;BME280;6587;42.728;23.288;2024-03-23T05:29:47;95441.72;;;2.16;69.42
13041;BME280;6587;42.728;23.288;2024-03-23T05:32:13;95447.19;;;2.11;69.57
13041;BME280;6587;42.728;23.288;2024-03-23T05:34:38;95440.81;;;2.00;69.54
13041;BME280;6587;42.728;23.288;2024-03-23T05:37:04;95446.53;;;2.14;69.35
13041;BME280;6587;42.728;23.288;2024-03-23T05:39:29;95451.53;;;2.07;69.43
13041;BME280;6587;42.728;23.288;2024-03-23T05:41:55;95439.41;;;2.15;69.42
13041;BME280;6587;42.728;23.288;2024-03-23T05:44:21;95447.25;;;2.35;68.81
13041;BME280;6587;42.728;23.288;2024-03-23T05:46:46;95448.53;;;2.29;68.96
13041;BME280;6587;42.728;23.288;2024-03-23T05:49:12;95442.25;;;2.42;68.85
13041;BME280;6587;42.728;23.288;2024-03-23T05:51:38;95440.06;;;2.56;68.75
13041;BME280;6587;42.728;23.288;2024-03-23T05:54:03;95439.88;;;2.29;69.14
13041;BME280;6587;42.728;23.288;2024-03-23T05:56:29;95444.66;;;2.59;68.91
13041;BME280;6587;42.728;23.288;2024-03-23T05:58:55;95438.56;;;2.79;68.52
13041;BME280;6587;42.728;23.288;2024-03-23T06:01:20;95445.56;;;2.87;68.26
13041;BME280;6587;42.728;23.288;2024-03-23T06:03:46;95435.28;;;2.70;68.96
13041;BME280;6587;42.728;23.288;2024-03-23T06:06:11;95433.28;;;2.91;68.26
13041;BME280;6587;42.728;23.288;2024-03-23T06:08:38;95434.28;;;2.99;68.40
13041;BME280;6587;42.728;23.288;2024-03-23T06:11:04;95439.00;;;2.93;68.35
13041;BME280;6587;42.728;23.288;2024-03-23T06:13:29;95442.50;;;3.09;68.31
13041;BME280;6587;42.728;23.288;2024-03-23T06:15:56;95440.41;;;3.03;68.72
13041;BME280;6587;42.728;23.288;2024-03-23T06:18:21;95432.44;;;3.11;68.37
13041;BME280;6587;42.728;23.288;2024-03-23T06:20:47;95436.47;;;3.09;68.36
13041;BME280;6587;42.728;23.288;2024-03-23T06:23:12;95440.31;;;3.11;68.48
13041;BME280;6587;42.728;23.288;2024-03-23T06:25:38;95441.59;;;3.05;68.62
13041;BME280;6587;42.728;23.288;2024-03-23T06:28:04;95444.25;;;2.93;69.23
13041;BME280;6587;42.728;23.288;2024-03-23T06:30:30;95433.72;;;3.17;69.92
13041;BME280;6587;42.728;23.288;2024-03-23T06:32:55;95438.84;;;3.38;68.58
13041;BME280;6587;42.728;23.288;2024-03-23T06:35:21;95442.13;;;3.47;68.61
13041;BME280;6587;42.728;23.288;2024-03-23T06:37:47;95431.91;;;3.58;68.41
13041;BME280;6587;42.728;23.288;2024-03-23T06:40:12;95434.47;;;3.70;67.64
13041;BME280;6587;42.728;23.288;2024-03-23T06:42:38;95425.97;;;3.61;68.30
13041;BME280;6587;42.728;23.288;2024-03-23T06:45:04;95430.91;;;3.62;68.18
13041;BME280;6587;42.728;23.288;2024-03-23T06:47:30;95423.69;;;3.87;67.43
13041;BME280;6587;42.728;23.288;2024-03-23T06:49:55;95436.97;;;4.06;67.44
13041;BME280;6587;42.728;23.288;2024-03-23T06:52:21;95432.78;;;4.17;66.79
13041;BME280;6587;42.728;23.288;2024-03-23T06:54:46;95438.00;;;4.29;66.41
13041;BME280;6587;42.728;23.288;2024-03-23T06:57:12;95427.19;;;4.34;66.56
13041;BME280;6587;42.728;23.288;2024-03-23T06:59:38;95430.53;;;4.46;66.79
13041;BME280;6587;42.728;23.288;2024-03-23T07:02:05;95431.06;;;4.67;66.42
13041;BME280;6587;42.728;23.288;2024-03-23T07:04:30;95430.56;;;4.77;64.78
13041;BME280;6587;42.728;23.288;2024-03-23T07:06:56;95426.38;;;4.92;64.59
13041;BME280;6587;42.728;23.288;2024-03-23T07:09:22;95418.44;;;5.08;64.33
13041;BME280;6587;42.728;23.288;2024-03-23T07:11:47;95419.19;;;5.24;63.09
13041;BME280;6587;42.728;23.288;2024-03-23T07:14:13;95413.72;;;5.32;62.89
13041;BME280;6587;42.728;23.288;2024-03-23T07:16:38;95408.59;;;5.58;62.10
13041;BME280;6587;42.728;23.288;2024-03-23T07:19:04;95410.28;;;5.66;61.39
13041;BME280;6587;42.728;23.288;2024-03-23T07:21:29;95411.72;;;5.64;60.90
13041;BME280;6587;42.728;23.288;2024-03-23T07:23:55;95415.47;;;5.97;60.37
13041;BME280;6587;42.728;23.288;2024-03-23T07:26:21;95404.72;;;6.09;59.84
13041;BME280;6587;42.728;23.288;2024-03-23T07:28:46;95402.50;;;6.11;59.88
13041;BME280;6587;42.728;23.288;2024-03-23T07:31:15;95406.41;;;6.17;59.22
13041;BME280;6587;42.728;23.288;2024-03-23T07:33:45;95394.66;;;6.37;59.07
13041;BME280;6587;42.728;23.288;2024-03-23T07:36:12;95405.84;;;6.73;58.57
13041;BME280;6587;42.728;23.288;2024-03-23T07:38:40;95397.00;;;6.88;58.18
13041;BME280;6587;42.728;23.288;2024-03-23T07:41:08;95395.81;;;6.59;58.01
13041;BME280;6587;42.728;23.288;2024-03-23T07:43:35;95400.66;;;6.80;58.43
13041;BME280;6587;42.728;23.288;2024-03-23T07:46:01;95392.34;;;7.04;57.98
13041;BME280;6587;42.728;23.288;2024-03-23T07:48:26;95404.28;;;7.17;57.21
13041;BME280;6587;42.728;23.288;2024-03-23T07:51:20;95388.56;;;7.05;57.99
13041;BME280;6587;42.728;23.288;2024-03-23T07:53:46;95389.97;;;7.80;56.71
13041;BME280;6587;42.728;23.288;2024-03-23T07:56:12;95394.25;;;7.88;55.53
13041;BME280;6587;42.728;23.288;2024-03-23T07:58:38;95384.16;;;8.01;56.16
13041;BME280;6587;42.728;23.288;2024-03-23T08:01:15;95385.09;;;8.19;55.31
13041;BME280;6587;42.728;23.288;2024-03-23T08:03:42;95390.97;;;8.02;55.05
13041;BME280;6587;42.728;23.288;2024-03-23T08:06:15;95382.72;;;8.07;54.74
13041;BME280;6587;42.728;23.288;2024-03-23T08:08:43;95377.13;;;8.52;54.59
13041;BME280;6587;42.728;23.288;2024-03-23T08:11:09;95375.94;;;8.93;53.59
13041;BME280;6587;42.728;23.288;2024-03-23T08:13:36;95374.44;;;8.92;53.03
13041;BME280;6587;42.728;23.288;2024-03-23T08:16:03;95375.72;;;9.12;52.19
13041;BME280;6587;42.728;23.288;2024-03-23T08:18:29;95379.78;;;9.61;51.60
13041;BME280;6587;42.728;23.288;2024-03-23T08:20:58;95374.19;;;9.80;50.49
13041;BME280;6587;42.728;23.288;2024-03-23T08:23:25;95375.97;;;9.62;50.77
13041;BME280;6587;42.728;23.288;2024-03-23T08:25:51;95369.69;;;10.01;50.29
13041;BME280;6587;42.728;23.288;2024-03-23T08:28:17;95364.34;;;9.98;50.06
13041;BME280;6587;42.728;23.288;2024-03-23T08:30:43;95366.66;;;10.03;50.22
13041;BME280;6587;42.728;23.288;2024-03-23T08:33:09;95361.06;;;10.36;49.46
13041;BME280;6587;42.728;23.288;2024-03-23T08:35:34;95367.22;;;10.82;48.73
13041;BME280;6587;42.728;23.288;2024-03-23T08:38:00;95360.34;;;10.77;47.35
13041;BME280;6587;42.728;23.288;2024-03-23T08:40:26;95363.38;;;10.55;48.83
13041;BME280;6587;42.728;23.288;2024-03-23T08:42:51;95355.41;;;10.55;48.53
13041;BME280;6587;42.728;23.288;2024-03-23T08:45:17;95350.09;;;10.83;48.01
13041;BME280;6587;42.728;23.288;2024-03-23T08:47:42;95345.50;;;10.62;47.93
13041;BME280;6587;42.728;23.288;2024-03-23T08:50:08;95340.19;;;10.94;48.17
13041;BME280;6587;42.728;23.288;2024-03-23T08:52:34;95340.50;;;11.31;47.52
13041;BME280;6587;42.728;23.288;2024-03-23T08:55:00;95337.78;;;11.52;47.05
13041;BME280;6587;42.728;23.288;2024-03-23T08:57:25;95330.84;;;11.86;47.05
13041;BME280;6587;42.728;23.288;2024-03-23T08:59:51;95332.88;;;12.30;45.79
13041;BME280;6587;42.728;23.288;2024-03-23T09:02:16;95322.59;;;12.28;46.04
13041;BME280;6587;42.728;23.288;2024-03-23T09:04:42;95322.00;;;12.61;45.57
13041;BME280;6587;42.728;23.288;2024-03-23T09:07:09;95320.09;;;13.06;45.46
13041;BME280;6587;42.728;23.288;2024-03-23T09:09:34;95322.19;;;13.29;44.18
13041;BME280;6587;42.728;23.288;2024-03-23T09:12:03;95307.97;;;12.98;43.67
13041;BME280;6587;42.728;23.288;2024-03-23T09:14:28;95301.09;;;13.71;43.41
13041;BME280;6587;42.728;23.288;2024-03-23T09:16:55;95298.28;;;14.12;43.03
13041;BME280;6587;42.728;23.288;2024-03-23T09:19:20;95305.53;;;13.81;42.95
13041;BME280;6587;42.728;23.288;2024-03-23T09:21:46;95288.97;;;13.93;43.91
13041;BME280;6587;42.728;23.288;2024-03-23T09:24:11;95287.88;;;14.44;42.43
13041;BME280;6587;42.728;23.288;2024-03-23T09:26:37;95284.69;;;14.53;41.56
13041;BME280;6587;42.728;23.288;2024-03-23T09:29:03;95281.78;;;14.90;41.49
13041;BME280;6587;42.728;23.288;2024-03-23T09:31:29;95278.03;;;14.64;40.51
13041;BME280;6587;42.728;23.288;2024-03-23T09:33:54;95274.94;;;15.31;39.70
13041;BME280;6587;42.728;23.288;2024-03-23T09:36:20;95267.88;;;15.41;39.17
13041;BME280;6587;42.728;23.288;2024-03-23T09:38:45;95264.31;;;15.24;38.47
13041;BME280;6587;42.728;23.288;2024-03-23T09:41:11;95258.41;;;15.33;38.87
13041;BME280;6587;42.728;23.288;2024-03-23T09:43:37;95264.63;;;15.49;38.73
13041;BME280;6587;42.728;23.288;2024-03-23T09:46:03;95249.69;;;14.86;39.15
13041;BME280;6587;42.728;23.288;2024-03-23T09:48:29;95246.28;;;15.05;38.82
13041;BME280;6587;42.728;23.288;2024-03-23T09:50:55;95248.53;;;15.49;38.38
13041;BME280;6587;42.728;23.288;2024-03-23T09:53:21;95240.63;;;15.98;38.17
13041;BME280;6587;42.728;23.288;2024-03-23T09:55:48;95246.78;;;16.30;37.00
13041;BME280;6587;42.728;23.288;2024-03-23T09:58:15;95231.00;;;16.32;36.15
13041;BME280;6587;42.728;23.288;2024-03-23T10:00:41;95233.97;;;16.38;36.94
13041;BME280;6587;42.728;23.288;2024-03-23T10:03:07;95226.53;;;17.06;36.10
13041;BME280;6587;42.728;23.288;2024-03-23T10:05:33;95217.09;;;17.14;35.72
13041;BME280;6587;42.728;23.288;2024-03-23T10:08:00;95213.28;;;17.40;35.81
13041;BME280;6587;42.728;23.288;2024-03-23T10:10:26;95221.22;;;18.38;35.16
13041;BME280;6587;42.728;23.288;2024-03-23T10:12:51;95212.78;;;18.11;32.54
13041;BME280;6587;42.728;23.288;2024-03-23T10:15:26;95205.34;;;17.90;32.54
13041;BME280;6587;42.728;23.288;2024-03-23T10:17:52;95203.25;;;18.69;33.23
13041;BME280;6587;42.728;23.288;2024-03-23T10:20:22;95204.63;;;19.08;32.73
13041;BME280;6587;42.728;23.288;2024-03-23T10:22:48;95203.09;;;19.20;32.33
13041;BME280;6587;42.728;23.288;2024-03-23T10:25:15;95194.69;;;18.49;31.41
13041;BME280;6587;42.728;23.288;2024-03-23T10:27:41;95194.22;;;18.63;30.74
13041;BME280;6587;42.728;23.288;2024-03-23T10:30:12;95185.25;;;18.66;32.12
13041;BME280;6587;42.728;23.288;2024-03-23T10:32:38;95188.47;;;19.30;30.61
13041;BME280;6587;42.728;23.288;2024-03-23T10:35:19;95182.84;;;20.29;30.07
13041;BME280;6587;42.728;23.288;2024-03-23T10:37:45;95176.81;;;20.91;28.35
13041;BME280;6587;42.728;23.288;2024-03-23T10:40:12;95170.38;;;20.98;28.92
13041;BME280;6587;42.728;23.288;2024-03-23T10:42:38;95155.78;;;21.04;28.81
13041;BME280;6587;42.728;23.288;2024-03-23T10:45:05;95159.31;;;20.38;28.15
13041;BME280;6587;42.728;23.288;2024-03-23T10:47:35;95157.88;;;20.15;28.68
13041;BME280;6587;42.728;23.288;2024-03-23T10:50:01;95142.78;;;19.66;30.17
13041;BME280;6587;42.728;23.288;2024-03-23T10:52:27;95133.06;;;21.02;28.37
13041;BME280;6587;42.728;23.288;2024-03-23T10:54:53;95134.91;;;21.64;28.74
13041;BME280;6587;42.728;23.288;2024-03-23T10:57:21;95123.75;;;21.12;27.05
13041;BME280;6587;42.728;23.288;2024-03-23T10:59:48;95129.28;;;20.63;28.06
13041;BME280;6587;42.728;23.288;2024-03-23T11:02:21;95122.38;;;20.71;28.54
13041;BME280;6587;42.728;23.288;2024-03-23T11:04:47;95105.28;;;22.03;28.22
13041;BME280;6587;42.728;23.288;2024-03-23T11:07:30;95100.91;;;23.14;27.06
13041;BME280;6587;42.728;23.288;2024-03-23T11:09:57;95101.19;;;23.16;25.72
13041;BME280;6587;42.728;23.288;2024-03-23T11:17:28;95082.31;;;23.85;25.56
13041;BME280;6587;42.728;23.288;2024-03-23T11:19:54;95073.06;;;23.77;23.94
13041;BME280;6587;42.728;23.288;2024-03-23T11:25:21;95063.28;;;23.36;25.69
13041;BME280;6587;42.728;23.288;2024-03-23T11:27:49;95065.16;;;23.30;25.33
13041;BME280;6587;42.728;23.288;2024-03-23T11:30:19;95055.59;;;23.35;25.91
13041;BME280;6587;42.728;23.288;2024-03-23T11:32:46;95052.78;;;24.47;25.42
13041;BME280;6587;42.728;23.288;2024-03-23T11:35:37;95045.84;;;24.26;24.48
13041;BME280;6587;42.728;23.288;2024-03-23T11:40:42;95038.44;;;25.44;23.18
13041;BME280;6587;42.728;23.288;2024-03-23T11:43:10;95032.38;;;25.96;22.18
13041;BME280;6587;42.728;23.288;2024-03-23T11:45:38;95024.28;;;25.40;23.07
13041;BME280;6587;42.728;23.288;2024-03-23T11:48:15;95021.41;;;25.85;22.24
13041;BME280;6587;42.728;23.288;2024-03-23T11:50:43;95016.06;;;25.34;22.42
13041;BME280;6587;42.728;23.288;2024-03-23T11:53:23;95006.16;;;25.68;22.91
13041;BME280;6587;42.728;23.288;2024-03-23T11:58:16;94994.34;;;25.82;21.61
13041;BME280;6587;42.728;23.288;2024-03-23T12:00:49;94989.88;;;25.79;21.27
13041;BME280;6587;42.728;23.288;2024-03-23T12:03:16;94991.75;;;25.62;23.01
13041;BME280;6587;42.728;23.288;2024-03-23T12:05:47;94986.91;;;25.46;20.77
13041;BME280;6587;42.728;23.288;2024-03-23T12:08:20;94974.78;;;25.47;21.54
13041;BME280;6587;42.728;23.288;2024-03-23T12:10:48;94972.50;;;25.40;20.86
13041;BME280;6587;42.728;23.288;2024-03-23T12:13:22;94967.94;;;25.31;20.54
13041;BME280;6587;42.728;23.288;2024-03-23T12:15:50;94963.63;;;23.62;22.14
13041;BME280;6587;42.728;23.288;2024-03-23T12:18:17;94967.63;;;21.74;23.23
13041;BME280;6587;42.728;23.288;2024-03-23T12:20:42;94955.91;;;22.39;23.40
13041;BME280;6587;42.728;23.288;2024-03-23T12:23:12;94957.84;;;24.09;22.04
13041;BME280;6587;42.728;23.288;2024-03-23T12:25:42;94950.94;;;23.94;22.47
13041;BME280;6587;42.728;23.288;2024-03-23T12:28:08;94949.81;;;25.54;21.16
13041;BME280;6587;42.728;23.288;2024-03-23T12:30:35;94950.47;;;25.12;20.02
13041;BME280;6587;42.728;23.288;2024-03-23T12:33:01;94940.19;;;26.11;22.46
13041;BME280;6587;42.728;23.288;2024-03-23T12:35:27;94936.09;;;26.49;20.38
13041;BME280;6587;42.728;23.288;2024-03-23T12:37:53;94931.97;;;26.87;20.64
13041;BME280;6587;42.728;23.288;2024-03-23T12:40:18;94928.38;;;26.42;20.29
13041;BME280;6587;42.728;23.288;2024-03-23T12:42:44;94914.34;;;27.04;21.42
13041;BME280;6587;42.728;23.288;2024-03-23T12:45:10;94916.81;;;26.91;18.73
13041;BME280;6587;42.728;23.288;2024-03-23T12:47:37;94924.00;;;27.33;19.03
13041;BME280;6587;42.728;23.288;2024-03-23T12:50:02;94921.19;;;28.40;18.87
13041;BME280;6587;42.728;23.288;2024-03-23T12:52:29;94915.97;;;28.82;17.93
13041;BME280;6587;42.728;23.288;2024-03-23T12:54:56;94907.13;;;27.29;16.71
13041;BME280;6587;42.728;23.288;2024-03-23T12:57:25;94902.75;;;25.64;16.80
13041;BME280;6587;42.728;23.288;2024-03-23T12:59:52;94887.75;;;26.77;16.60
13041;BME280;6587;42.728;23.288;2024-03-23T13:02:22;94891.47;;;27.02;15.79
13041;BME280;6587;42.728;23.288;2024-03-23T13:04:55;94880.50;;;26.47;16.16
13041;BME280;6587;42.728;23.288;2024-03-23T13:07:23;94889.50;;;25.94;16.22
13041;BME280;6587;42.728;23.288;2024-03-23T13:09:53;94895.28;;;24.09;16.58
13041;BME280;6587;42.728;23.288;2024-03-23T13:12:19;94886.56;;;25.50;16.62
13041;BME280;6587;42.728;23.288;2024-03-23T13:14:46;94878.72;;;25.63;17.11
13041;BME280;6587;42.728;23.288;2024-03-23T13:17:11;94868.50;;;25.16;17.31
13041;BME280;6587;42.728;23.288;2024-03-23T13:19:37;94880.31;;;23.24;17.82
13041;BME280;6587;42.728;23.288;2024-03-23T13:22:07;94871.41;;;23.24;18.05
13041;BME280;6587;42.728;23.288;2024-03-23T13:24:35;94862.09;;;24.56;17.82
13041;BME280;6587;42.728;23.288;2024-03-23T13:27:03;94856.94;;;24.58;17.54
13041;BME280;6587;42.728;23.288;2024-03-23T13:29:31;94868.31;;;23.46;18.05
13041;BME280;6587;42.728;23.288;2024-03-23T13:31:56;94859.91;;;22.07;19.36
13041;BME280;6587;42.728;23.288;2024-03-23T13:34:22;94856.06;;;23.21;18.62
13041;BME280;6587;42.728;23.288;2024-03-23T13:36:48;94850.22;;;23.43;18.51
13041;BME280;6587;42.728;23.288;2024-03-23T13:39:14;94839.97;;;24.43;17.57
13041;BME280;6587;42.728;23.288;2024-03-23T13:41:44;94839.38;;;25.33;17.11
13041;BME280;6587;42.728;23.288;2024-03-23T13:44:13;94839.28;;;26.61;16.84
13041;BME280;6587;42.728;23.288;2024-03-23T13:46:44;94833.13;;;26.88;16.52
13041;BME280;6587;42.728;23.288;2024-03-23T13:49:30;94821.81;;;28.10;16.69
13041;BME280;6587;42.728;23.288;2024-03-23T13:51:57;94820.06;;;29.12;17.35
13041;BME280;6587;42.728;23.288;2024-03-23T13:54:26;94823.38;;;29.29;16.07
13041;BME280;6587;42.728;23.288;2024-03-23T13:56:55;94820.63;;;29.29;16.89
13041;BME280;6587;42.728;23.288;2024-03-23T13:59:21;94819.91;;;28.69;14.93
13041;BME280;6587;42.728;23.288;2024-03-23T14:01:47;94820.72;;;27.78;17.11
13041;BME280;6587;42.728;23.288;2024-03-23T14:04:14;94811.41;;;29.02;16.88
13041;BME280;6587;42.728;23.288;2024-03-23T14:06:40;94805.69;;;29.30;16.32
13041;BME280;6587;42.728;23.288;2024-03-23T14:09:06;94822.44;;;26.90;16.20